Vienna, North Carolina
Current Conditions -  °F | °C
As of 7:54 PM on Sunday 21 Dec 2014 (Local Time) from KINT Reporting Station
Few Clouds Few Clouds  
Wind Chill: 38°   Ceiling: Unl
Heat Index: 42°   Visibility: 10mi
Dew Point: 34°   Wind: 6mph
Humidity: 73%   Direction: 70°ENE
Pressure: 30.23"   Gusts: NA
Location:  36.1722°N, 80.3739°W
Report Text: KINT 220054Z 07005KT 10SM FEW044 06/01 A3023 RMK AO2 SLP239 T00560011
Loading
Personal Weather Stations






























Interactive Weather Map New forecast layout! Learn more

10-Day Weather Forecast

Advertisements
Track Severe Weather on mobile